createdAt,value
2023-03-10T00:01:29.456Z,16.50
2023-03-10T00:03:58.162Z,16.50
2023-03-10T00:06:27.172Z,16.50
2023-03-10T00:08:54.650Z,16.50
2023-03-10T00:11:21.740Z,16.50
2023-03-10T00:13:48.635Z,16.50
2023-03-10T00:16:19.723Z,16.50
2023-03-10T00:18:46.899Z,16.50
2023-03-10T00:21:16.031Z,16.50
2023-03-10T00:23:43.317Z,16.50
2023-03-10T00:26:12.975Z,16.50
2023-03-10T00:28:40.485Z,16.50
2023-03-10T00:31:17.111Z,16.50
2023-03-10T00:33:44.587Z,16.50
2023-03-10T00:36:18.895Z,16.50
2023-03-10T00:38:48.765Z,16.50
2023-03-10T00:41:21.494Z,16.50
2023-03-10T00:43:48.853Z,16.50
2023-03-10T00:46:16.235Z,16.50
2023-03-10T00:48:43.697Z,16.50
2023-03-10T00:51:10.685Z,16.50
2023-03-10T00:53:39.981Z,16.50
2023-03-10T00:56:15.491Z,16.40
2023-03-10T00:58:43.160Z,16.40
2023-03-10T01:01:32.678Z,16.40
2023-03-10T01:04:03.023Z,16.50
2023-03-10T01:06:31.345Z,16.40
2023-03-10T01:08:58.530Z,16.40
2023-03-10T01:11:28.138Z,16.40
2023-03-10T01:13:58.019Z,16.40
2023-03-10T01:16:25.298Z,16.40
2023-03-10T01:18:52.348Z,16.40
2023-03-10T01:21:26.075Z,16.40
2023-03-10T01:23:53.453Z,16.40
2023-03-10T01:26:20.677Z,16.50
2023-03-10T01:28:48.562Z,16.50
2023-03-10T01:31:16.591Z,16.40
2023-03-10T01:33:44.411Z,16.40
2023-03-10T01:36:20.088Z,16.40
2023-03-10T01:38:47.401Z,16.40
2023-03-10T01:41:14.872Z,16.40
2023-03-10T01:43:44.324Z,16.40
2023-03-10T01:46:41.780Z,16.30
2023-03-10T01:49:26.001Z,16.30
2023-03-10T01:52:05.352Z,16.30
2023-03-10T01:55:06.900Z,16.30
2023-03-10T01:57:44.130Z,16.30
2023-03-10T02:00:12.975Z,16.30
2023-03-10T02:03:01.157Z,16.20
2023-03-10T02:05:29.652Z,16.20
2023-03-10T02:07:58.282Z,16.20
2023-03-10T02:10:26.441Z,16.20
2023-03-10T02:12:53.421Z,16.20
2023-03-10T02:15:20.511Z,16.10
2023-03-10T02:17:50.402Z,16.10
2023-03-10T02:20:27.059Z,16.10
2023-03-10T02:22:54.549Z,16.10
2023-03-10T02:25:45.588Z,16.10
2023-03-10T02:28:13.642Z,16.10
2023-03-10T02:30:43.911Z,16.10
2023-03-10T02:33:15.111Z,16.10
2023-03-10T02:35:44.275Z,16.10
2023-03-10T02:38:15.178Z,16.00
2023-03-10T02:40:50.857Z,16.10
2023-03-10T02:43:33.636Z,16.00
2023-03-10T02:46:26.663Z,16.00
2023-03-10T02:48:53.647Z,16.10
2023-03-10T02:51:33.722Z,16.00
2023-03-10T02:54:05.033Z,16.00
2023-03-10T02:56:34.790Z,16.00
2023-03-10T02:59:02.953Z,16.00
2023-03-10T03:01:32.670Z,16.00
2023-03-10T03:04:00.840Z,16.00
2023-03-10T03:06:29.244Z,16.00
2023-03-10T03:08:57.010Z,16.00
2023-03-10T03:11:26.208Z,16.00
2023-03-10T03:13:54.024Z,15.90
2023-03-10T03:16:21.947Z,15.90
2023-03-10T03:18:53.060Z,15.90
2023-03-10T03:21:22.045Z,15.90
2023-03-10T03:23:49.999Z,15.90
2023-03-10T03:26:24.282Z,15.90
2023-03-10T03:28:56.446Z,15.90
2023-03-10T03:31:27.277Z,15.90
2023-03-10T03:34:06.023Z,15.90
2023-03-10T03:36:33.724Z,15.90
2023-03-10T03:39:01.150Z,15.90
2023-03-10T03:41:30.977Z,15.90
2023-03-10T03:43:58.033Z,15.90
2023-03-10T03:46:25.605Z,15.80
2023-03-10T03:48:53.104Z,15.80
2023-03-10T03:51:20.044Z,15.80
2023-03-10T03:53:46.952Z,15.80
2023-03-10T03:56:14.328Z,15.80
2023-03-10T03:58:43.637Z,15.80
2023-03-10T04:01:10.743Z,15.80
2023-03-10T04:03:43.189Z,15.80
2023-03-10T04:06:13.253Z,15.70
2023-03-10T04:08:40.737Z,15.70
2023-03-10T04:11:07.687Z,15.70
2023-03-10T04:13:37.459Z,15.70
2023-03-10T04:16:06.247Z,15.70
2023-03-10T04:18:35.644Z,15.70
2023-03-10T04:21:03.743Z,15.70
2023-03-10T04:23:31.631Z,15.70
2023-03-10T04:25:58.875Z,15.70
2023-03-10T04:28:27.419Z,15.70
2023-03-10T04:30:55.518Z,15.60
2023-03-10T04:33:25.678Z,15.60
2023-03-10T04:35:53.539Z,15.70
2023-03-10T04:38:25.213Z,15.70
2023-03-10T04:40:54.922Z,15.70
2023-03-10T04:43:23.142Z,15.70
2023-03-10T04:45:51.005Z,15.60
2023-03-10T04:48:17.976Z,15.70
2023-03-10T04:50:44.908Z,15.70
2023-03-10T04:53:13.324Z,15.70
2023-03-10T04:55:40.192Z,15.60
2023-03-10T04:58:07.396Z,15.60
2023-03-10T05:00:34.712Z,15.70
2023-03-10T05:03:01.855Z,15.60
2023-03-10T05:05:28.692Z,15.60
2023-03-10T05:07:55.708Z,15.60
2023-03-10T05:10:22.573Z,15.60
2023-03-10T05:12:49.465Z,15.60
2023-03-10T05:15:16.583Z,15.60
2023-03-10T05:17:43.756Z,15.60
2023-03-10T05:20:11.600Z,15.60
2023-03-10T05:22:38.944Z,15.60
2023-03-10T05:25:10.467Z,15.60
2023-03-10T05:27:39.192Z,15.60
2023-03-10T05:30:10.780Z,15.60
2023-03-10T05:32:37.933Z,15.60
2023-03-10T05:35:05.343Z,15.60
2023-03-10T05:37:39.323Z,15.60
2023-03-10T05:40:13.454Z,15.60
2023-03-10T05:42:40.856Z,15.60
2023-03-10T05:45:08.793Z,15.60
2023-03-10T05:47:36.133Z,15.60
2023-03-10T05:50:03.829Z,15.60
2023-03-10T05:52:30.865Z,15.60
2023-03-10T05:54:57.840Z,15.60
2023-03-10T05:57:24.945Z,15.50
2023-03-10T05:59:51.767Z,15.60
2023-03-10T06:02:18.674Z,15.60
2023-03-10T06:04:45.480Z,15.50
2023-03-10T06:07:12.289Z,15.50
2023-03-10T06:09:39.074Z,15.50
2023-03-10T06:12:06.166Z,15.50
2023-03-10T06:14:33.014Z,15.50
2023-03-10T06:16:59.870Z,15.50
2023-03-10T06:19:27.451Z,15.50
2023-03-10T06:21:54.414Z,15.50
2023-03-10T06:24:21.241Z,15.50
2023-03-10T06:26:48.087Z,15.50
2023-03-10T06:29:14.865Z,15.50
2023-03-10T06:31:41.712Z,15.50
2023-03-10T06:34:08.515Z,15.50
2023-03-10T06:36:37.477Z,15.50
2023-03-10T06:39:05.500Z,15.50
2023-03-10T06:41:33.520Z,15.50
2023-03-10T06:44:00.439Z,15.60
2023-03-10T06:46:28.877Z,15.50
2023-03-10T06:49:00.654Z,15.60
2023-03-10T06:51:29.665Z,15.50
2023-03-10T06:53:57.810Z,15.50
2023-03-10T06:56:26.602Z,15.60
2023-03-10T06:58:55.126Z,15.60
2023-03-10T07:01:27.217Z,15.60
2023-03-10T07:03:54.734Z,15.60
2023-03-10T07:06:22.463Z,15.60
2023-03-10T07:08:50.903Z,15.60
2023-03-10T07:11:18.180Z,15.60
2023-03-10T07:13:44.978Z,15.60
2023-03-10T07:16:11.821Z,15.60
2023-03-10T07:18:38.632Z,15.70
2023-03-10T07:21:10.009Z,15.70
2023-03-10T07:23:37.510Z,15.70
2023-03-10T07:26:07.948Z,15.70
2023-03-10T07:28:38.346Z,15.70
2023-03-10T07:31:10.386Z,15.80
2023-03-10T07:33:38.872Z,15.70
2023-03-10T07:36:08.060Z,15.80
2023-03-10T07:38:35.536Z,15.80
2023-03-10T07:41:06.935Z,15.80
2023-03-10T07:43:33.908Z,15.80
2023-03-10T07:46:04.039Z,15.90
2023-03-10T07:48:30.912Z,15.90
2023-03-10T07:50:58.655Z,15.90
2023-03-10T07:53:26.478Z,15.90
2023-03-10T07:55:53.717Z,15.90
2023-03-10T07:58:20.810Z,15.90
2023-03-10T08:00:55.033Z,15.90
2023-03-10T08:03:22.234Z,15.90
2023-03-10T08:05:49.095Z,16.00
2023-03-10T08:08:16.126Z,16.00
2023-03-10T08:10:43.010Z,16.00
2023-03-10T08:13:09.871Z,16.00
2023-03-10T08:15:39.064Z,16.00
2023-03-10T08:18:07.756Z,15.90
2023-03-10T08:20:36.793Z,16.00
2023-03-10T08:23:04.338Z,16.00
2023-03-10T08:25:31.683Z,16.00
2023-03-10T08:27:58.634Z,15.90
2023-03-10T08:30:25.598Z,16.00
2023-03-10T08:32:53.391Z,15.90
2023-03-10T08:35:20.784Z,15.90
2023-03-10T08:37:47.609Z,15.90
2023-03-10T08:40:16.109Z,16.00
2023-03-10T08:42:43.034Z,15.90
2023-03-10T08:45:11.555Z,15.90
2023-03-10T08:47:38.933Z,15.90
2023-03-10T08:50:07.563Z,15.90
2023-03-10T08:52:34.600Z,15.90
2023-03-10T08:55:01.564Z,15.90
2023-03-10T08:57:28.470Z,15.90
2023-03-10T08:59:55.568Z,15.90
2023-03-10T09:02:22.532Z,15.90
2023-03-10T09:04:49.999Z,15.90
2023-03-10T09:07:17.510Z,15.90
2023-03-10T09:09:44.755Z,15.90
2023-03-10T09:12:12.258Z,16.00
2023-03-10T09:14:39.208Z,15.90
2023-03-10T09:17:06.238Z,16.00
2023-03-10T09:19:33.206Z,16.00
2023-03-10T09:22:00.389Z,16.00
2023-03-10T09:24:27.544Z,16.00
2023-03-10T09:26:55.869Z,16.00
2023-03-10T09:29:36.513Z,16.00
2023-03-10T09:32:09.713Z,16.00
2023-03-10T09:34:36.921Z,16.00
2023-03-10T09:37:06.899Z,16.00
2023-03-10T09:39:35.138Z,16.00
2023-03-10T09:42:36.698Z,16.00
2023-03-10T09:45:22.640Z,16.00
2023-03-10T09:48:17.551Z,16.00
2023-03-10T09:50:48.997Z,15.90
2023-03-10T09:53:57.413Z,15.90
2023-03-10T09:56:31.784Z,15.90
2023-03-10T09:59:05.503Z,15.90
2023-03-10T10:01:33.853Z,15.80
2023-03-10T10:04:11.107Z,15.80
2023-03-10T10:06:42.386Z,15.80
2023-03-10T10:09:24.180Z,15.80
2023-03-10T10:11:51.145Z,15.80
2023-03-10T10:14:29.861Z,15.80
2023-03-10T10:17:20.087Z,15.80
2023-03-10T10:19:50.866Z,15.70
2023-03-10T10:22:26.510Z,15.70
2023-03-10T10:25:12.629Z,15.80
2023-03-10T10:27:41.615Z,15.80
2023-03-10T10:30:37.740Z,15.70
2023-03-10T10:33:16.106Z,15.70
2023-03-10T10:35:58.945Z,15.70
2023-03-10T10:38:29.428Z,15.70
2023-03-10T10:41:01.650Z,15.70
2023-03-10T10:43:28.922Z,15.70
2023-03-10T10:46:05.855Z,15.70
2023-03-10T10:48:40.237Z,15.70
2023-03-10T10:51:29.213Z,15.70
2023-03-10T10:53:57.384Z,15.70
2023-03-10T10:56:25.268Z,15.80
2023-03-10T10:59:18.938Z,15.70
2023-03-10T11:01:52.141Z,15.70
2023-03-10T11:04:20.123Z,15.70
2023-03-10T11:06:47.871Z,15.80
2023-03-10T11:09:22.165Z,15.70
2023-03-10T11:11:59.773Z,15.80
2023-03-10T11:14:37.033Z,15.70
2023-03-10T11:17:24.697Z,15.80
2023-03-10T11:20:33.612Z,15.70
2023-03-10T11:23:09.489Z,15.70
2023-03-10T11:25:39.167Z,15.80
2023-03-10T11:28:17.810Z,15.80
2023-03-10T11:31:22.348Z,15.80
2023-03-10T11:33:53.624Z,15.80
2023-03-10T11:36:35.115Z,15.80
2023-03-10T11:39:35.663Z,15.80
2023-03-10T11:42:33.791Z,15.80
2023-03-10T11:45:16.592Z,15.80
2023-03-10T11:47:54.785Z,15.80
2023-03-10T11:50:25.827Z,15.80
2023-03-10T11:53:04.666Z,15.80
2023-03-10T11:55:32.332Z,15.80
2023-03-10T11:58:03.320Z,15.80
2023-03-10T12:00:40.680Z,15.80
2023-03-10T12:03:19.712Z,15.80
2023-03-10T12:05:55.609Z,15.80
2023-03-10T12:08:28.326Z,15.80
2023-03-10T12:10:56.877Z,15.80
2023-03-10T12:13:33.610Z,15.80
2023-03-10T12:16:02.668Z,15.80
2023-03-10T12:18:29.826Z,15.80
2023-03-10T12:21:14.619Z,15.80
2023-03-10T12:23:42.506Z,15.70
2023-03-10T12:26:09.635Z,15.80
2023-03-10T12:28:36.586Z,15.80
2023-03-10T12:31:29.839Z,15.80
2023-03-10T12:34:23.097Z,15.80
2023-03-10T12:36:55.397Z,15.80
2023-03-10T12:39:30.738Z,15.80
2023-03-10T12:42:02.515Z,15.80
2023-03-10T12:44:41.132Z,15.80
2023-03-10T12:47:08.117Z,15.80
2023-03-10T12:49:45.385Z,15.80
2023-03-10T12:52:22.064Z,15.80
2023-03-10T12:54:56.070Z,15.70
2023-03-10T12:57:32.734Z,15.70
2023-03-10T13:00:06.660Z,15.70
2023-03-10T13:02:47.917Z,15.70
2023-03-10T13:05:27.159Z,15.60
2023-03-10T13:07:57.529Z,15.60
2023-03-10T13:10:26.157Z,15.60
2023-03-10T13:13:04.393Z,15.50
2023-03-10T13:15:33.572Z,15.50
2023-03-10T13:18:21.786Z,15.40
2023-03-10T13:20:50.384Z,15.40
2023-03-10T13:23:27.715Z,15.40
2023-03-10T13:25:59.347Z,15.40
2023-03-10T13:28:28.955Z,15.40
2023-03-10T13:31:14.848Z,15.30
2023-03-10T13:33:52.764Z,15.30
2023-03-10T13:36:36.783Z,15.30
2023-03-10T13:39:18.085Z,15.20
2023-03-10T13:41:50.281Z,15.20
2023-03-10T13:44:27.710Z,15.20
2023-03-10T13:47:00.846Z,15.20
2023-03-10T13:49:32.153Z,15.20
2023-03-10T13:52:01.347Z,15.10
2023-03-10T13:54:33.661Z,15.10
2023-03-10T13:57:15.709Z,15.10
2023-03-10T13:59:42.938Z,15.10
2023-03-10T14:02:40.296Z,15.00
2023-03-10T14:05:08.637Z,15.10
2023-03-10T14:07:39.164Z,15.00
2023-03-10T14:10:05.954Z,15.00
2023-03-10T14:12:40.171Z,15.00
2023-03-10T14:15:36.961Z,15.00
2023-03-10T14:18:06.876Z,15.00
2023-03-10T14:20:39.986Z,14.90
2023-03-10T14:23:19.003Z,14.90
2023-03-10T14:25:46.891Z,14.90
2023-03-10T14:28:19.001Z,14.90
2023-03-10T14:30:45.888Z,14.90
2023-03-10T14:33:15.313Z,14.90
2023-03-10T14:35:43.248Z,14.90
2023-03-10T14:38:10.145Z,14.90
2023-03-10T14:40:43.652Z,14.80
2023-03-10T14:43:16.500Z,14.80
2023-03-10T14:45:44.926Z,14.80
2023-03-10T14:48:15.045Z,14.80
2023-03-10T14:50:42.086Z,14.80
2023-03-10T14:53:14.290Z,14.80
2023-03-10T14:55:43.186Z,14.80
2023-03-10T14:58:16.632Z,14.80
2023-03-10T15:00:43.526Z,14.80
2023-03-10T15:03:12.519Z,14.80
2023-03-10T15:05:48.242Z,14.80
2023-03-10T15:08:17.367Z,14.80
2023-03-10T15:10:48.436Z,14.80
2023-03-10T15:13:18.226Z,14.70
2023-03-10T15:15:46.957Z,14.80
2023-03-10T15:18:19.888Z,14.70
2023-03-10T15:20:46.749Z,14.70
2023-03-10T15:23:17.569Z,14.70
2023-03-10T15:25:46.177Z,14.70
2023-03-10T15:28:13.467Z,14.70
2023-03-10T15:30:40.824Z,14.70
2023-03-10T15:33:07.737Z,14.70
2023-03-10T15:35:35.346Z,14.70
2023-03-10T15:38:02.833Z,14.70
2023-03-10T15:40:32.579Z,14.70
2023-03-10T15:43:00.244Z,14.70
2023-03-10T15:45:29.580Z,14.70
2023-03-10T15:47:57.894Z,14.70
2023-03-10T15:50:25.148Z,14.70
2023-03-10T15:52:55.168Z,14.70
2023-03-10T15:55:22.913Z,14.70
2023-03-10T15:57:50.488Z,14.60
2023-03-10T16:00:19.650Z,14.60
2023-03-10T16:02:47.730Z,14.60
2023-03-10T16:05:15.237Z,14.60
2023-03-10T16:07:42.242Z,14.50
2023-03-10T16:10:10.792Z,14.50
2023-03-10T16:12:39.587Z,14.50
2023-03-10T16:15:07.982Z,14.50
2023-03-10T16:17:34.855Z,14.50
2023-03-10T16:20:06.682Z,14.40
2023-03-10T16:22:33.552Z,14.40
2023-03-10T16:25:00.953Z,14.40
2023-03-10T16:27:27.791Z,14.40
2023-03-10T16:29:54.662Z,14.40
2023-03-10T16:32:21.595Z,14.40
2023-03-10T16:34:48.526Z,14.30
2023-03-10T16:37:15.402Z,14.30
2023-03-10T16:39:43.477Z,14.30
2023-03-10T16:42:10.352Z,14.30
2023-03-10T16:44:37.362Z,14.20
2023-03-10T16:47:04.300Z,14.30
2023-03-10T16:49:32.424Z,14.20
2023-03-10T16:51:59.775Z,14.20
2023-03-10T16:54:26.626Z,14.20
2023-03-10T16:56:57.052Z,14.20
2023-03-10T16:59:25.037Z,14.20
2023-03-10T17:01:52.141Z,14.10
2023-03-10T17:04:19.978Z,14.10
2023-03-10T17:06:47.590Z,14.10
2023-03-10T17:09:16.134Z,14.10
2023-03-10T17:11:55.387Z,14.00
2023-03-10T17:14:23.059Z,14.00
2023-03-10T17:16:50.912Z,14.00
2023-03-10T17:19:20.397Z,14.00
2023-03-10T17:21:49.280Z,14.00
2023-03-10T17:24:18.075Z,13.90
2023-03-10T17:26:45.679Z,13.90
2023-03-10T17:29:13.389Z,13.90
2023-03-10T17:31:41.143Z,13.90
2023-03-10T17:34:11.964Z,13.90
2023-03-10T17:36:39.173Z,13.90
2023-03-10T17:39:06.777Z,13.80
2023-03-10T17:41:35.821Z,13.80
2023-03-10T17:44:04.784Z,13.80
2023-03-10T17:46:32.086Z,13.80
2023-03-10T17:49:00.220Z,13.80
2023-03-10T17:51:29.935Z,13.80
2023-03-10T17:53:59.399Z,13.80
2023-03-10T17:56:27.787Z,13.70
2023-03-10T17:58:58.528Z,13.70
2023-03-10T18:01:28.723Z,13.70
2023-03-10T18:04:00.342Z,13.70
2023-03-10T18:06:33.621Z,13.60
2023-03-10T18:09:02.164Z,13.60
2023-03-10T18:11:29.324Z,13.60
2023-03-10T18:13:56.436Z,13.50
2023-03-10T18:16:29.239Z,13.60
2023-03-10T18:18:58.049Z,13.50
2023-03-10T18:21:25.665Z,13.50
2023-03-10T18:23:53.023Z,13.50
2023-03-10T18:26:23.180Z,13.50
2023-03-10T18:28:50.816Z,13.50
2023-03-10T18:31:21.108Z,13.40
2023-03-10T18:33:48.943Z,13.40
2023-03-10T18:36:17.377Z,13.40
2023-03-10T18:38:46.385Z,13.40
2023-03-10T18:41:14.006Z,13.30
2023-03-10T18:43:40.930Z,13.30
2023-03-10T18:46:08.605Z,13.30
2023-03-10T18:48:35.660Z,13.20
2023-03-10T18:51:02.954Z,13.20
2023-03-10T18:53:29.901Z,13.10
2023-03-10T18:55:59.432Z,13.00
2023-03-10T18:58:27.234Z,12.90
2023-03-10T19:00:54.275Z,12.90
2023-03-10T19:03:21.434Z,12.80
2023-03-10T19:05:55.124Z,12.80
2023-03-10T19:08:22.550Z,12.70
2023-03-10T19:11:00.294Z,12.70
2023-03-10T19:13:28.847Z,12.60
2023-03-10T19:15:56.423Z,12.50
2023-03-10T19:18:24.302Z,12.50
2023-03-10T19:20:51.775Z,12.40
2023-03-10T19:23:18.755Z,12.40
2023-03-10T19:25:45.791Z,12.30
2023-03-10T19:28:13.070Z,12.30
2023-03-10T19:30:42.831Z,12.30
2023-03-10T19:33:11.154Z,12.20
2023-03-10T19:35:38.618Z,12.20
2023-03-10T19:38:05.915Z,12.10
2023-03-10T19:40:33.695Z,12.10
2023-03-10T19:43:00.775Z,12.00
2023-03-10T19:45:28.678Z,12.00
2023-03-10T19:47:57.965Z,12.00
2023-03-10T19:50:25.370Z,12.00
2023-03-10T19:52:52.536Z,11.90
2023-03-10T19:55:25.263Z,11.90
2023-03-10T19:57:54.162Z,11.90
2023-03-10T20:00:25.660Z,11.80
2023-03-10T20:02:54.359Z,11.80
2023-03-10T20:05:22.609Z,11.80
2023-03-10T20:07:49.791Z,11.80
2023-03-10T20:10:17.822Z,11.70
2023-03-10T20:12:47.146Z,11.70
2023-03-10T20:15:15.046Z,11.70
2023-03-10T20:17:42.017Z,11.60
2023-03-10T20:20:13.529Z,11.60
2023-03-10T20:22:42.980Z,11.60
2023-03-10T20:25:12.221Z,11.50
2023-03-10T20:27:39.191Z,11.50
2023-03-10T20:30:23.256Z,11.50
2023-03-10T20:32:51.074Z,11.50
2023-03-10T20:35:18.650Z,11.40
2023-03-10T20:37:46.247Z,11.40
2023-03-10T20:40:16.578Z,11.40
2023-03-10T20:42:43.855Z,11.30
2023-03-10T20:45:11.886Z,11.30
2023-03-10T20:47:38.784Z,11.30
2023-03-10T20:50:08.053Z,11.20
2023-03-10T20:52:37.546Z,11.20
2023-03-10T20:55:06.553Z,11.20
2023-03-10T20:57:34.317Z,11.10
2023-03-10T21:00:02.001Z,11.10
2023-03-10T21:02:29.183Z,11.10
2023-03-10T21:04:56.163Z,11.00
2023-03-10T21:07:23.346Z,11.00
2023-03-10T21:09:50.972Z,11.00
2023-03-10T21:12:19.028Z,10.90
2023-03-10T21:14:46.402Z,10.90
2023-03-10T21:17:13.670Z,10.90
2023-03-10T21:19:40.517Z,10.90
2023-03-10T21:22:07.378Z,10.90
2023-03-10T21:24:35.471Z,10.80
2023-03-10T21:27:02.570Z,10.90
2023-03-10T21:29:29.806Z,10.80
2023-03-10T21:31:56.698Z,10.80
2023-03-10T21:34:23.553Z,10.80
2023-03-10T21:36:50.491Z,10.80
2023-03-10T21:39:17.480Z,10.80
2023-03-10T21:41:44.563Z,10.80
2023-03-10T21:44:11.556Z,10.70
2023-03-10T21:46:38.844Z,10.70
2023-03-10T21:49:06.011Z,10.70
2023-03-10T21:51:34.868Z,10.70
2023-03-10T21:54:03.370Z,10.60
2023-03-10T21:56:31.331Z,10.60
2023-03-10T21:58:58.256Z,10.70
2023-03-10T22:01:25.662Z,10.60
2023-03-10T22:03:52.628Z,10.60
2023-03-10T22:06:19.836Z,10.60
2023-03-10T22:08:46.744Z,10.60
2023-03-10T22:11:13.900Z,10.60
2023-03-10T22:13:41.505Z,10.70
2023-03-10T22:16:10.729Z,10.60
2023-03-10T22:18:38.053Z,10.60
2023-03-10T22:21:05.421Z,10.60
2023-03-10T22:23:32.288Z,10.60
2023-03-10T22:25:59.330Z,10.60
2023-03-10T22:28:26.239Z,10.60
2023-03-10T22:30:53.323Z,10.50
2023-03-10T22:33:20.273Z,10.50
2023-03-10T22:35:51.982Z,10.40
2023-03-10T22:38:21.995Z,10.40
2023-03-10T22:40:49.002Z,10.30
2023-03-10T22:43:15.943Z,10.20
2023-03-10T22:45:42.880Z,10.20
2023-03-10T22:48:09.743Z,10.20
2023-03-10T22:50:43.658Z,10.10
2023-03-10T22:53:18.858Z,10.10
2023-03-10T22:55:47.851Z,10.10
2023-03-10T22:58:16.270Z,10.00
2023-03-10T23:00:43.370Z,10.00
2023-03-10T23:03:11.752Z,10.00
2023-03-10T23:05:39.630Z,10.00
2023-03-10T23:08:07.238Z,9.90
2023-03-10T23:10:35.889Z,10.00
2023-03-10T23:13:05.554Z,10.00
2023-03-10T23:15:35.315Z,9.90
2023-03-10T23:18:02.217Z,9.90
2023-03-10T23:20:33.672Z,9.90
2023-03-10T23:23:02.094Z,9.80
2023-03-10T23:25:32.181Z,9.80
2023-03-10T23:28:00.059Z,9.80
2023-03-10T23:30:27.700Z,9.80
2023-03-10T23:32:55.098Z,9.70
2023-03-10T23:35:25.642Z,9.70
2023-03-10T23:37:52.627Z,9.70
2023-03-10T23:40:21.485Z,9.60
2023-03-10T23:42:48.402Z,9.60
2023-03-10T23:45:18.536Z,9.60
2023-03-10T23:47:45.988Z,9.50
2023-03-10T23:50:25.244Z,9.50
2023-03-10T23:52:52.128Z,9.50
2023-03-10T23:55:25.174Z,9.50
2023-03-10T23:57:52.141Z,9.40
